Time;durP1;ratioP1;P1;durP2;ratioP2;P2;SDS_P1;SDS_P2;PMS_P1;PMS_P2;Temp;Humidity;BMP_temperature;BMP_pressure;BME280_temperature;BME280_humidity;BME280_pressure;Samples;Min_cycle;Max_cycle;Signal;HPM_P1;HPM_P2
2021/07/15 00:04:23;;;;;;;3.23;1.60;;;;;;;;;;10250211;28;20251;-72
2021/07/15 00:09:26;;;;;;;2.87;1.40;;;;;;;;;;10251911;28;20247;-73
2021/07/15 00:14:28;;;;;;;1.83;1.20;;;;;;;;;;10251377;28;20308;-71
2021/07/15 00:19:33;;;;;;;1.80;1.10;;;;;;;;;;10259810;28;20246;-72
2021/07/15 00:24:35;;;;;;;2.13;1.40;;;;;;;;;;10241456;28;20306;-72
2021/07/15 00:29:38;;;;;;;1.60;1.30;;;;;;;;;;10255705;28;20628;-69
2021/07/15 00:34:42;;;;;;;1.23;1.00;;;;;;;;;;10253086;28;20220;-72
2021/07/15 00:39:44;;;;;;;1.43;1.00;;;;;;;;;;10261674;28;20188;-71
2021/07/15 00:44:47;;;;;;;1.60;1.10;;;;;;;;;;10241834;28;20222;-69
2021/07/15 00:49:51;;;;;;;2.50;1.20;;;;;;;;;;10246684;28;20303;-71
2021/07/15 00:54:53;;;;;;;1.83;1.10;;;;;;;;;;10247962;28;20315;-71
2021/07/15 00:59:56;;;;;;;1.07;0.97;;;;;;;;;;10251537;28;20215;-72
2021/07/15 01:05:00;;;;;;;1.50;0.80;;;;;;;;;;10240984;28;20217;-73
2021/07/15 01:10:03;;;;;;;0.83;0.77;;;;;;;;;;10262208;28;20514;-71
2021/07/15 01:15:08;;;;;;;2.33;0.70;;;;;;;;;;10253213;28;20219;-72
2021/07/15 01:20:18;;;;;;;0.80;0.80;;;;;;;;;;10244981;28;20196;-72
2021/07/15 01:25:54;;;;;;;1.93;0.80;;;;;;;;;;10248718;28;20656;-71
2021/07/15 01:31:00;;;;;;;0.60;0.60;;;;;;;;;;10250522;28;20217;-71
2021/07/15 01:36:04;;;;;;;1.37;0.70;;;;;;;;;;10254193;28;20199;-72
2021/07/15 01:41:08;;;;;;;0.70;0.60;;;;;;;;;;10243676;28;20231;-71
2021/07/15 01:46:13;;;;;;;0.90;0.70;;;;;;;;;;10256690;28;20732;-72
2021/07/15 01:51:16;;;;;;;0.43;0.43;;;;;;;;;;10238550;28;20652;-72
2021/07/15 01:56:20;;;;;;;0.90;0.70;;;;;;;;;;10243579;28;20283;-72
2021/07/15 02:01:26;;;;;;;0.77;0.77;;;;;;;;;;10247489;28;20306;-72
2021/07/15 02:06:30;;;;;;;1.40;0.70;;;;;;;;;;10245291;28;20212;-71
2021/07/15 02:11:33;;;;;;;2.93;0.90;;;;;;;;;;10243903;28;20220;-73
2021/07/15 02:16:39;;;;;;;1.60;0.90;;;;;;;;;;10249274;28;20737;-72
2021/07/15 02:21:42;;;;;;;2.30;0.90;;;;;;;;;;10240840;28;20213;-72
2021/07/15 02:26:46;;;;;;;1.00;0.80;;;;;;;;;;10236412;28;20665;-73
2021/07/15 02:31:55;;;;;;;1.10;0.70;;;;;;;;;;10241832;28;20229;-72
2021/07/15 02:36:59;;;;;;;1.13;0.80;;;;;;;;;;10235868;28;20201;-73
2021/07/15 02:42:02;;;;;;;1.70;0.73;;;;;;;;;;10252995;28;20216;-73
2021/07/15 02:47:06;;;;;;;1.37;0.90;;;;;;;;;;10251833;28;20224;-72
2021/07/15 02:52:09;;;;;;;1.37;0.90;;;;;;;;;;10239737;28;20219;-73
2021/07/15 02:57:21;;;;;;;0.70;0.70;;;;;;;;;;10247012;28;20262;-71
2021/07/15 03:02:27;;;;;;;1.40;0.80;;;;;;;;;;10246926;28;20268;-72
2021/07/15 03:07:29;;;;;;;1.07;0.90;;;;;;;;;;10246378;28;20299;-73
2021/07/15 03:12:33;;;;;;;1.00;0.80;;;;;;;;;;10258543;28;20240;-72
2021/07/15 03:17:39;;;;;;;1.10;0.70;;;;;;;;;;10235293;28;20678;-73
2021/07/15 03:22:44;;;;;;;1.27;0.80;;;;;;;;;;10246128;28;20258;-73
2021/07/15 03:27:49;;;;;;;0.70;0.70;;;;;;;;;;10239252;28;20196;-73
2021/07/15 03:32:53;;;;;;;1.80;0.70;;;;;;;;;;10252455;28;20215;-73
2021/07/15 03:37:57;;;;;;;0.57;0.57;;;;;;;;;;10251239;28;20201;-70
2021/07/15 03:43:00;;;;;;;1.87;0.70;;;;;;;;;;10253527;28;20291;-72
2021/07/15 03:48:04;;;;;;;1.03;0.80;;;;;;;;;;10248358;28;20656;-71
2021/07/15 03:53:08;;;;;;;0.70;0.70;;;;;;;;;;10236667;28;20245;-71
2021/07/15 03:58:12;;;;;;;1.70;0.80;;;;;;;;;;10249422;28;20199;-73
2021/07/15 04:03:17;;;;;;;0.80;0.80;;;;;;;;;;10248736;28;20401;-72
2021/07/15 04:08:20;;;;;;;0.93;0.70;;;;;;;;;;10235073;28;20204;-72
2021/07/15 04:13:25;;;;;;;1.03;0.80;;;;;;;;;;10239869;28;20220;-71
2021/07/15 04:18:49;;;;;;;1.87;1.00;;;;;;;;;;10238390;28;20197;-72
2021/07/15 04:24:14;;;;;;;0.90;0.80;;;;;;;;;;10238329;28;20679;-73
2021/07/15 04:29:17;;;;;;;2.00;0.80;;;;;;;;;;10244604;28;20208;-72
2021/07/15 04:34:21;;;;;;;1.10;0.73;;;;;;;;;;10263475;28;20593;-71
2021/07/15 04:39:26;;;;;;;1.70;0.80;;;;;;;;;;10248368;28;20239;-73
2021/07/15 04:44:33;;;;;;;0.83;0.60;;;;;;;;;;10251198;28;20270;-72
2021/07/15 04:50:04;;;;;;;2.07;0.90;;;;;;;;;;10240434;28;20212;-72
2021/07/15 04:55:07;;;;;;;3.00;0.80;;;;;;;;;;10245674;28;20200;-72
2021/07/15 05:00:11;;;;;;;0.70;0.67;;;;;;;;;;10249939;28;20288;-70
2021/07/15 05:05:15;;;;;;;1.10;0.67;;;;;;;;;;10245116;28;20897;-70
2021/07/15 05:10:18;;;;;;;1.23;0.70;;;;;;;;;;10255090;28;20228;-72
2021/07/15 05:15:23;;;;;;;1.37;0.80;;;;;;;;;;10251643;28;20215;-72
2021/07/15 05:20:27;;;;;;;2.10;0.90;;;;;;;;;;10247030;28;20279;-72
2021/07/15 05:25:29;;;;;;;1.00;0.47;;;;;;;;;;10251203;28;20197;-71
2021/07/15 05:30:32;;;;;;;2.13;1.00;;;;;;;;;;10250190;28;20224;-72
2021/07/15 05:35:36;;;;;;;2.90;1.00;;;;;;;;;;10249068;28;20639;-72
2021/07/15 05:40:39;;;;;;;1.77;1.10;;;;;;;;;;10248184;28;20236;-72
2021/07/15 05:45:41;;;;;;;2.07;1.20;;;;;;;;;;10241788;28;20189;-73
2021/07/15 05:50:45;;;;;;;2.20;1.10;;;;;;;;;;10247027;28;20291;-73
2021/07/15 05:55:48;;;;;;;2.30;0.80;;;;;;;;;;10234490;28;20276;-71
2021/07/15 06:00:50;;;;;;;1.73;0.90;;;;;;;;;;10244295;28;20303;-73
2021/07/15 06:05:54;;;;;;;2.97;1.20;;;;;;;;;;10243799;28;20291;-73
2021/07/15 06:10:57;;;;;;;1.73;1.00;;;;;;;;;;10242645;28;20216;-73
2021/07/15 06:15:59;;;;;;;3.07;1.30;;;;;;;;;;10252251;28;20243;-71
2021/07/15 06:21:04;;;;;;;2.33;1.00;;;;;;;;;;10247842;28;20256;-71
2021/07/15 06:26:07;;;;;;;1.97;0.70;;;;;;;;;;10250437;28;20295;-72
2021/07/15 06:31:09;;;;;;;4.40;1.37;;;;;;;;;;10250751;28;20225;-72
2021/07/15 06:36:13;;;;;;;3.03;0.93;;;;;;;;;;10247726;28;20632;-71
2021/07/15 06:41:17;;;;;;;3.47;1.23;;;;;;;;;;10239400;28;20287;-71
2021/07/15 06:46:22;;;;;;;1.40;1.00;;;;;;;;;;10247963;28;20272;-72
2021/07/15 06:51:26;;;;;;;2.90;1.20;;;;;;;;;;10257661;28;20239;-72
2021/07/15 06:56:29;;;;;;;2.13;1.00;;;;;;;;;;10244914;28;20633;-73
2021/07/15 07:01:34;;;;;;;1.80;1.10;;;;;;;;;;10268262;28;20215;-73
2021/07/15 07:06:39;;;;;;;1.50;0.97;;;;;;;;;;10247119;28;20333;-73
2021/07/15 07:11:42;;;;;;;1.33;0.90;;;;;;;;;;10259059;28;20299;-73
2021/07/15 07:16:44;;;;;;;1.47;0.90;;;;;;;;;;10254138;28;20649;-73
2021/07/15 07:21:48;;;;;;;2.17;1.00;;;;;;;;;;10239088;28;20313;-71
2021/07/15 07:26:51;;;;;;;1.43;0.90;;;;;;;;;;10266349;28;20204;-73
2021/07/15 07:31:54;;;;;;;1.13;0.77;;;;;;;;;;10247041;28;20220;-73
2021/07/15 07:36:59;;;;;;;1.70;1.07;;;;;;;;;;10246105;28;20228;-72
2021/07/15 07:42:01;;;;;;;1.33;0.90;;;;;;;;;;10241185;28;20217;-72
2021/07/15 07:47:04;;;;;;;1.60;0.90;;;;;;;;;;10250844;28;20204;-73
2021/07/15 07:52:08;;;;;;;1.30;1.07;;;;;;;;;;10243576;28;20228;-73
2021/07/15 07:57:11;;;;;;;1.43;1.10;;;;;;;;;;10241440;28;20294;-72
2021/07/15 08:02:13;;;;;;;2.78;1.20;;;;;;;;;;10235460;28;20277;-71
2021/07/15 08:07:18;;;;;;;1.13;1.03;;;;;;;;;;10256480;28;20591;-71
2021/07/15 08:12:20;;;;;;;4.27;1.27;;;;;;;;;;10252509;28;20220;-70
2021/07/15 08:17:23;;;;;;;1.98;0.90;;;;;;;;;;10250173;28;20255;-72
2021/07/15 08:22:27;;;;;;;3.20;1.30;;;;;;;;;;10262032;28;20239;-71
2021/07/15 08:27:29;;;;;;;1.70;1.20;;;;;;;;;;10247040;28;20207;-72
2021/07/15 08:32:32;;;;;;;3.05;1.30;;;;;;;;;;10249389;28;20279;-71
2021/07/15 08:37:56;;;;;;;1.52;1.20;;;;;;;;;;10239820;28;20276;-72
2021/07/15 08:42:59;;;;;;;1.65;1.17;;;;;;;;;;10253524;28;20656;-71
2021/07/15 08:48:02;;;;;;;1.20;1.10;;;;;;;;;;10250519;28;20211;-72
2021/07/15 08:53:06;;;;;;;3.00;1.15;;;;;;;;;;10248729;28;20224;-71
2021/07/15 08:58:09;;;;;;;1.50;1.00;;;;;;;;;;10247887;28;20283;-70
2021/07/15 09:03:12;;;;;;;2.13;1.23;;;;;;;;;;10254720;28;20312;-71
2021/07/15 09:08:15;;;;;;;1.50;1.17;;;;;;;;;;10236356;28;20275;-71
2021/07/15 09:13:18;;;;;;;2.57;1.00;;;;;;;;;;10251306;28;20306;-73
2021/07/15 09:18:21;;;;;;;2.47;1.00;;;;;;;;;;10239580;28;20259;-71
2021/07/15 09:23:33;;;;;;;0.83;0.83;;;;;;;;;;10254158;28;20213;-71
2021/07/15 09:28:35;;;;;;;1.97;1.00;;;;;;;;;;10247591;28;20338;-71
2021/07/15 09:33:38;;;;;;;1.13;0.80;;;;;;;;;;10227811;28;20655;-72
2021/07/15 09:38:43;;;;;;;3.20;1.30;;;;;;;;;;10221037;28;20204;-72
2021/07/15 09:43:46;;;;;;;2.77;0.70;;;;;;;;;;10230927;28;20217;-71
2021/07/15 09:48:50;;;;;;;1.63;0.70;;;;;;;;;;10234069;28;20572;-72
2021/07/15 09:54:02;;;;;;;2.33;0.77;;;;;;;;;;10230371;28;20220;-72
2021/07/15 09:59:05;;;;;;;1.93;1.03;;;;;;;;;;10229997;28;20196;-71
2021/07/15 10:04:07;;;;;;;2.77;1.00;;;;;;;;;;10241426;28;20739;-71
2021/07/15 10:09:20;;;;;;;1.70;1.03;;;;;;;;;;10220521;28;20203;-71
2021/07/15 10:14:33;;;;;;;1.17;0.80;;;;;;;;;;10230953;28;20330;-70
2021/07/15 10:19:36;;;;;;;1.23;0.90;;;;;;;;;;10227189;28;20220;-71
2021/07/15 10:24:40;;;;;;;1.20;0.50;;;;;;;;;;10215862;28;20217;-73
2021/07/15 10:29:45;;;;;;;0.70;0.70;;;;;;;;;;10223305;28;20208;-73
2021/07/15 10:34:52;;;;;;;0.73;0.63;;;;;;;;;;10221856;28;20662;-71
2021/07/15 10:39:56;;;;;;;1.85;0.47;;;;;;;;;;10218002;28;20254;-71
2021/07/15 10:44:58;;;;;;;0.70;0.60;;;;;;;;;;10223148;28;20220;-71
2021/07/15 10:50:01;;;;;;;0.90;0.52;;;;;;;;;;10232041;28;20311;-73
2021/07/15 10:55:06;;;;;;;0.93;0.60;;;;;;;;;;10251785;28;20330;-72
2021/07/15 11:00:20;;;;;;;1.52;0.70;;;;;;;;;;10234631;28;20996;-71
2021/07/15 11:05:27;;;;;;;1.08;0.50;;;;;;;;;;10237874;28;20203;-71
2021/07/15 11:10:34;;;;;;;1.60;0.40;;;;;;;;;;10237117;28;20303;-70
2021/07/15 11:15:46;;;;;;;0.90;0.53;;;;;;;;;;10237728;28;20208;-72
2021/07/15 11:20:49;;;;;;;1.27;0.75;;;;;;;;;;10243602;28;20215;-72
2021/07/15 11:25:53;;;;;;;1.47;0.63;;;;;;;;;;10237855;28;20195;-72
2021/07/15 11:30:56;;;;;;;0.43;0.43;;;;;;;;;;10238851;28;20227;-73
2021/07/15 11:36:00;;;;;;;1.57;0.90;;;;;;;;;;10245297;28;20556;-72
2021/07/15 11:41:05;;;;;;;1.90;0.80;;;;;;;;;;10227157;28;20246;-72
2021/07/15 11:46:12;;;;;;;1.30;0.63;;;;;;;;;;10216463;28;20232;-72
2021/07/15 11:51:28;;;;;;;1.60;0.80;;;;;;;;;;10218710;28;20308;-71
2021/07/15 11:56:35;;;;;;;1.43;0.60;;;;;;;;;;10222901;28;20192;-71
2021/07/15 12:01:38;;;;;;;2.40;0.70;;;;;;;;;;10224780;28;20212;-72
2021/07/15 12:06:43;;;;;;;1.00;0.73;;;;;;;;;;10215706;28;20277;-71
2021/07/15 12:11:52;;;;;;;0.50;0.50;;;;;;;;;;10216915;28;20681;-73
2021/07/15 12:16:55;;;;;;;1.00;0.47;;;;;;;;;;10241231;28;20209;-71
2021/07/15 12:21:58;;;;;;;0.50;0.50;;;;;;;;;;10257228;28;20230;-72
2021/07/15 12:27:02;;;;;;;0.83;0.50;;;;;;;;;;10235858;28;20209;-72
2021/07/15 12:32:05;;;;;;;0.60;0.50;;;;;;;;;;10243009;28;20223;-72
2021/07/15 12:37:11;;;;;;;1.07;0.63;;;;;;;;;;10255593;28;20560;-72
2021/07/15 12:42:18;;;;;;;2.57;0.90;;;;;;;;;;10248436;28;20212;-72
2021/07/15 12:47:21;;;;;;;1.10;0.70;;;;;;;;;;10237376;28;20224;-71
2021/07/15 12:52:24;;;;;;;1.43;0.90;;;;;;;;;;10251666;28;20208;-72
2021/07/15 12:57:28;;;;;;;1.27;0.50;;;;;;;;;;10250595;28;20587;-73
2021/07/15 13:02:31;;;;;;;3.90;0.88;;;;;;;;;;10240429;28;20593;-71
2021/07/15 13:07:34;;;;;;;0.65;0.65;;;;;;;;;;10238439;28;20192;-72
2021/07/15 13:18:08;;;;;;;0.55;0.50;;;;;;;;;;10240520;28;20224;-72
2021/07/15 13:23:11;;;;;;;1.23;0.80;;;;;;;;;;10250569;28;20679;-71
2021/07/15 13:28:15;;;;;;;1.77;0.75;;;;;;;;;;10246705;28;20187;-70
2021/07/15 13:33:21;;;;;;;0.93;0.60;;;;;;;;;;10239921;28;21493;-71
2021/07/15 13:38:24;;;;;;;0.65;0.50;;;;;;;;;;10249971;28;20208;-71
2021/07/15 13:43:29;;;;;;;1.05;1.05;;;;;;;;;;10244162;28;20267;-71
2021/07/15 13:48:33;;;;;;;0.90;0.70;;;;;;;;;;10237980;28;20263;-71
2021/07/15 13:53:36;;;;;;;1.10;0.70;;;;;;;;;;10243215;28;20672;-71
2021/07/15 13:58:40;;;;;;;0.63;0.63;;;;;;;;;;10239194;28;20227;-71
2021/07/15 14:03:43;;;;;;;0.82;0.60;;;;;;;;;;10243303;28;20232;-71
2021/07/15 14:08:46;;;;;;;0.52;0.50;;;;;;;;;;10244415;28;20355;-71
2021/07/15 14:13:50;;;;;;;2.10;0.70;;;;;;;;;;10257510;28;20749;-70
2021/07/15 14:19:02;;;;;;;0.60;0.50;;;;;;;;;;10248928;28;20636;-71
2021/07/15 14:24:05;;;;;;;0.40;0.40;;;;;;;;;;10238884;28;20215;-70
2021/07/15 14:29:09;;;;;;;0.82;0.45;;;;;;;;;;10250468;28;20189;-71
2021/07/15 14:34:12;;;;;;;1.40;0.50;;;;;;;;;;10247807;28;20335;-70
2021/07/15 14:39:15;;;;;;;0.43;0.43;;;;;;;;;;10246880;28;20648;-71
2021/07/15 14:44:19;;;;;;;0.73;0.50;;;;;;;;;;10236276;28;20622;-70
2021/07/15 14:49:22;;;;;;;1.33;0.90;;;;;;;;;;10248463;28;20200;-70
2021/07/15 14:54:24;;;;;;;0.87;0.70;;;;;;;;;;10242167;28;20315;-71
2021/07/15 14:59:28;;;;;;;1.70;0.70;;;;;;;;;;10240549;28;20740;-71
2021/07/15 15:04:31;;;;;;;1.13;0.70;;;;;;;;;;10234952;28;20640;-71
2021/07/15 15:09:33;;;;;;;1.60;0.97;;;;;;;;;;10239208;28;20231;-72
2021/07/15 15:14:37;;;;;;;0.83;0.73;;;;;;;;;;10243214;28;20616;-70
2021/07/15 15:19:40;;;;;;;2.03;1.00;;;;;;;;;;10242024;28;20680;-72
2021/07/15 15:24:43;;;;;;;2.70;1.07;;;;;;;;;;10241098;28;20212;-72
2021/07/15 15:29:46;;;;;;;2.60;1.00;;;;;;;;;;10238769;28;20200;-70
2021/07/15 15:34:49;;;;;;;4.90;2.30;;;;;;;;;;10230503;28;20626;-71
2021/07/15 15:39:51;;;;;;;5.13;1.87;;;;;;;;;;10239935;28;20798;-72
2021/07/15 15:44:55;;;;;;;2.17;1.23;;;;;;;;;;10236871;28;20227;-71
2021/07/15 15:49:58;;;;;;;1.57;0.93;;;;;;;;;;10243177;28;20553;-73
2021/07/15 15:55:01;;;;;;;2.03;1.10;;;;;;;;;;10235545;28;20209;-73
2021/07/15 16:00:05;;;;;;;1.70;1.00;;;;;;;;;;10240658;28;20215;-72
2021/07/15 16:05:09;;;;;;;2.60;0.93;;;;;;;;;;10239886;28;20643;-70
2021/07/15 16:10:12;;;;;;;1.63;1.03;;;;;;;;;;10238293;28;20220;-72
2021/07/15 16:15:19;;;;;;;1.33;1.10;;;;;;;;;;10247245;28;20229;-71
2021/07/15 16:20:23;;;;;;;2.67;1.23;;;;;;;;;;10235499;28;20204;-70
2021/07/15 16:25:26;;;;;;;2.43;1.20;;;;;;;;;;10259298;28;20669;-72
2021/07/15 16:30:32;;;;;;;1.23;1.00;;;;;;;;;;10250623;28;20242;-72
2021/07/15 16:35:35;;;;;;;2.57;1.47;;;;;;;;;;10245822;28;20288;-72
2021/07/15 16:40:38;;;;;;;2.27;0.90;;;;;;;;;;10256608;28;20683;-73
2021/07/15 16:45:42;;;;;;;3.90;1.20;;;;;;;;;;10259366;28;20259;-71
2021/07/15 16:50:44;;;;;;;3.33;1.87;;;;;;;;;;10257112;28;21340;-71
2021/07/15 16:55:47;;;;;;;2.97;1.20;;;;;;;;;;10275614;28;20224;-72
2021/07/15 17:00:51;;;;;;;3.20;1.90;;;;;;;;;;10247040;28;21514;-71
2021/07/15 17:05:54;;;;;;;4.47;2.00;;;;;;;;;;10245519;28;20232;-73
2021/07/15 17:10:56;;;;;;;3.43;1.30;;;;;;;;;;10251620;28;20237;-73
2021/07/15 17:16:00;;;;;;;1.53;1.10;;;;;;;;;;10253427;28;20597;-73
2021/07/15 17:21:03;;;;;;;3.33;1.50;;;;;;;;;;10251931;28;20234;-73
2021/07/15 17:26:07;;;;;;;3.13;1.20;;;;;;;;;;10249534;28;20231;-73
2021/07/15 17:31:13;;;;;;;1.13;0.90;;;;;;;;;;10244696;28;20212;-72
2021/07/15 17:36:16;;;;;;;2.20;1.00;;;;;;;;;;10240962;28;20211;-72
2021/07/15 17:41:20;;;;;;;2.43;1.20;;;;;;;;;;10251237;28;20296;-72
2021/07/15 17:46:24;;;;;;;2.37;1.10;;;;;;;;;;10264396;28;20189;-73
2021/07/15 17:51:26;;;;;;;2.00;1.00;;;;;;;;;;10247798;28;20311;-72
2021/07/15 17:56:29;;;;;;;3.47;1.63;;;;;;;;;;10245090;28;20367;-70
2021/07/15 18:01:33;;;;;;;2.97;1.17;;;;;;;;;;10243716;28;20230;-72
2021/07/15 18:06:36;;;;;;;2.17;1.17;;;;;;;;;;10242083;28;20196;-71
2021/07/15 18:11:39;;;;;;;1.97;1.00;;;;;;;;;;10250212;28;20235;-72
2021/07/15 18:16:43;;;;;;;2.57;1.50;;;;;;;;;;10262555;28;20236;-72
2021/07/15 18:21:45;;;;;;;6.13;2.43;;;;;;;;;;10255176;28;20305;-72
2021/07/15 18:26:48;;;;;;;1.93;1.17;;;;;;;;;;10243843;28;20275;-72
2021/07/15 18:31:52;;;;;;;2.70;1.10;;;;;;;;;;10250714;28;20224;-72
2021/07/15 18:36:55;;;;;;;3.23;1.60;;;;;;;;;;10241448;28;20614;-72
2021/07/15 18:41:58;;;;;;;1.70;1.00;;;;;;;;;;10242726;28;20251;-70
2021/07/15 18:47:02;;;;;;;2.80;1.00;;;;;;;;;;10241873;28;20196;-72
2021/07/15 18:52:05;;;;;;;0.70;0.40;;;;;;;;;;10252660;28;20226;-73
2021/07/15 18:57:09;;;;;;;2.87;1.23;;;;;;;;;;10245304;28;20218;-73
2021/07/15 19:02:13;;;;;;;1.50;1.10;;;;;;;;;;10242833;28;20641;-72
2021/07/15 19:07:16;;;;;;;2.07;1.30;;;;;;;;;;10239277;28;20196;-72
2021/07/15 19:12:18;;;;;;;4.30;1.70;;;;;;;;;;10252776;28;20216;-72
2021/07/15 19:17:22;;;;;;;3.30;1.40;;;;;;;;;;10238727;28;20378;-73
2021/07/15 19:22:25;;;;;;;3.03;1.30;;;;;;;;;;10233887;28;20696;-72
2021/07/15 19:27:27;;;;;;;2.60;1.20;;;;;;;;;;10239345;28;20203;-74
2021/07/15 19:32:31;;;;;;;1.50;1.00;;;;;;;;;;10230185;28;20216;-73
2021/07/15 19:37:34;;;;;;;3.50;1.10;;;;;;;;;;10233840;28;20251;-71
2021/07/15 19:42:36;;;;;;;3.13;1.37;;;;;;;;;;10237407;28;20715;-73
2021/07/15 19:47:41;;;;;;;2.80;1.50;;;;;;;;;;10248078;28;20336;-72
2021/07/15 19:52:43;;;;;;;2.80;1.10;;;;;;;;;;10234139;28;20268;-72
2021/07/15 19:57:46;;;;;;;2.50;1.03;;;;;;;;;;10235936;28;20326;-72
2021/07/15 20:02:50;;;;;;;2.30;1.30;;;;;;;;;;10238192;28;20239;-73
2021/07/15 20:07:54;;;;;;;2.50;1.10;;;;;;;;;;10249291;28;20199;-73
2021/07/15 20:12:56;;;;;;;2.40;1.03;;;;;;;;;;10249278;28;20232;-72
2021/07/15 20:18:01;;;;;;;2.37;0.80;;;;;;;;;;10240810;28;20266;-71
2021/07/15 20:23:03;;;;;;;1.60;1.00;;;;;;;;;;10255348;28;20239;-72
2021/07/15 20:28:07;;;;;;;1.67;1.00;;;;;;;;;;10268061;28;20211;-72
2021/07/15 20:33:11;;;;;;;1.83;1.00;;;;;;;;;;10254661;28;20653;-70
2021/07/15 20:38:13;;;;;;;2.93;1.27;;;;;;;;;;10240648;28;20284;-72
2021/07/15 20:43:16;;;;;;;3.40;1.23;;;;;;;;;;10246358;28;20596;-72
2021/07/15 20:48:20;;;;;;;3.70;1.50;;;;;;;;;;10256274;28;20197;-72
2021/07/15 20:53:22;;;;;;;3.17;1.53;;;;;;;;;;10240521;28;20212;-71
2021/07/15 20:58:25;;;;;;;1.90;1.07;;;;;;;;;;10237022;28;20601;-72
2021/07/15 21:03:29;;;;;;;2.03;1.00;;;;;;;;;;10229372;28;20244;-72
2021/07/15 21:08:31;;;;;;;5.70;1.47;;;;;;;;;;10235943;28;20247;-72
2021/07/15 21:13:34;;;;;;;3.30;1.20;;;;;;;;;;10226689;28;20319;-70
2021/07/15 21:18:38;;;;;;;1.70;0.80;;;;;;;;;;10229958;28;20200;-71
2021/07/15 21:23:40;;;;;;;2.60;0.80;;;;;;;;;;10232112;28;20301;-71
2021/07/15 21:28:43;;;;;;;1.27;0.70;;;;;;;;;;10242612;28;20219;-70
2021/07/15 21:33:47;;;;;;;3.43;0.70;;;;;;;;;;10227183;28;20283;-73
2021/07/15 21:38:50;;;;;;;2.13;0.93;;;;;;;;;;10223143;28;20256;-70
2021/07/15 21:43:52;;;;;;;2.40;1.20;;;;;;;;;;10220256;28;20299;-73
2021/07/15 21:48:56;;;;;;;3.57;1.30;;;;;;;;;;10228454;28;20201;-73
2021/07/15 21:53:58;;;;;;;2.40;1.00;;;;;;;;;;10236237;28;20303;-73
2021/07/15 21:59:01;;;;;;;2.07;0.97;;;;;;;;;;10236901;28;20276;-71
2021/07/15 22:04:05;;;;;;;2.20;1.10;;;;;;;;;;10231663;28;20228;-73
2021/07/15 22:09:09;;;;;;;2.40;0.97;;;;;;;;;;10239825;28;20248;-72
2021/07/15 22:14:31;;;;;;;1.57;0.77;;;;;;;;;;10243747;28;20971;-71
2021/07/15 22:19:55;;;;;;;1.97;0.90;;;;;;;;;;10245316;28;20196;-71
2021/07/15 22:25:18;;;;;;;1.53;0.90;;;;;;;;;;10239541;28;20203;-72
2021/07/15 22:30:41;;;;;;;1.27;0.80;;;;;;;;;;10246166;28;20224;-72
2021/07/15 22:36:05;;;;;;;2.63;1.07;;;;;;;;;;10245507;28;20557;-72
2021/07/15 22:41:28;;;;;;;2.47;1.10;;;;;;;;;;10240149;28;20231;-70
2021/07/15 22:46:51;;;;;;;2.33;1.00;;;;;;;;;;10248389;28;20201;-73
2021/07/15 22:51:55;;;;;;;2.20;0.90;;;;;;;;;;10244816;28;20805;-73
2021/07/15 22:57:18;;;;;;;2.00;0.80;;;;;;;;;;10241654;28;20267;-72
2021/07/15 23:02:25;;;;;;;2.07;0.93;;;;;;;;;;10234476;28;20226;-73
2021/07/15 23:07:29;;;;;;;2.77;0.80;;;;;;;;;;10243535;28;20525;-73
2021/07/15 23:12:32;;;;;;;1.40;0.83;;;;;;;;;;10253618;28;20250;-72
2021/07/15 23:17:34;;;;;;;2.27;0.90;;;;;;;;;;10252322;28;20271;-72
2021/07/15 23:22:38;;;;;;;1.90;0.70;;;;;;;;;;10247942;28;20227;-73
2021/07/15 23:27:41;;;;;;;0.97;0.70;;;;;;;;;;10242152;28;20222;-71
2021/07/15 23:32:44;;;;;;;1.23;0.60;;;;;;;;;;10245505;28;20235;-73
2021/07/15 23:37:47;;;;;;;2.77;1.00;;;;;;;;;;10238447;28;20209;-72
2021/07/15 23:42:50;;;;;;;1.57;0.80;;;;;;;;;;10243784;28;20251;-72
2021/07/15 23:47:53;;;;;;;3.03;0.60;;;;;;;;;;10243306;28;20443;-73
2021/07/15 23:52:56;;;;;;;1.67;0.90;;;;;;;;;;10243863;28;20222;-71
2021/07/15 23:57:59;;;;;;;2.27;1.07;;;;;;;;;;10246545;28;20315;-71
